Ana Sayfa
METAR-TAF:

METAR-TAF

Havaalanları :

Alpine-Casparis Municipal Airport

Alpine, Teksas, Amerika Birleşik Devletleri

Enlem: 30-23-03N, Boylam: 103-41-00W, yükseklik: 1376 m

Güncel hava durumu gözlemi

Rapor saat 17:55 UTC de 16 dakika önce yapıldı.
Rüzgar doğu/kuzeydoğudan 7 kt
Sıcaklık 3°C
Nem 93%
Basınç 1028 hPa
Görüş mesafesi: 0.8 km
200 ft yükseklikte çok bulutlu

METAR: KE38 101755Z AUTO 06007KT 1/2SM OVC002 03/02 A3035 RMK AO2 60010 T00250022 10077 20018

Saat: 12:11 (18:11 UTC)


TAF: eksik

4.000'den fazla havaalanı için hava durumu gözlemleri ve tahminleri (METAR ve TAF raporları).

Kullanılabilir istasyonlar harita üzerinde sarı ve kırmızı noktalarla gösterilir.

İstasyonun adını görmek için fareyi noktanın üzerinde gezdirin.

Sonrasında hava gözlem ve tahminlerini görmek için tıklayın.

Haritayı değiştirmek için: yaklaştırmak için siyah artı işaretli yeşil düğmeye ve uzaklaştırmak için de eksi işaretli düğmeye hızla tıklayın; bitişik haritalar için yeşil okları kullanın.


METAR-TAF: